sensor_id;sensor_type;location;lat;lon;timestamp;temperature;humidity
42803;DHT22;28447;48.682;9.022;2022-07-29T00:00:13;18.70;99.90
42803;DHT22;28447;48.682;9.022;2022-07-29T00:02:39;18.50;99.90
42803;DHT22;28447;48.682;9.022;2022-07-29T00:05:05;18.40;99.90
42803;DHT22;28447;48.682;9.022;2022-07-29T00:07:31;18.30;99.90
42803;DHT22;28447;48.682;9.022;2022-07-29T00:09:57;18.20;99.90
42803;DHT22;28447;48.682;9.022;2022-07-29T00:12:24;18.20;99.90
42803;DHT22;28447;48.682;9.022;2022-07-29T00:14:50;18.10;99.90
42803;DHT22;28447;48.682;9.022;2022-07-29T00:17:15;18.00;99.90
42803;DHT22;28447;48.682;9.022;2022-07-29T00:19:41;18.00;99.90
42803;DHT22;28447;48.682;9.022;2022-07-29T00:22:07;18.10;99.90
42803;DHT22;28447;48.682;9.022;2022-07-29T00:24:32;18.10;99.90
42803;DHT22;28447;48.682;9.022;2022-07-29T00:26:58;18.00;99.90
42803;DHT22;28447;48.682;9.022;2022-07-29T00:29:24;18.00;99.90
42803;DHT22;28447;48.682;9.022;2022-07-29T00:31:49;18.00;99.90
42803;DHT22;28447;48.682;9.022;2022-07-29T00:34:15;17.90;99.90
42803;DHT22;28447;48.682;9.022;2022-07-29T00:37:01;17.90;99.90
42803;DHT22;28447;48.682;9.022;2022-07-29T00:39:27;17.90;99.90
42803;DHT22;28447;48.682;9.022;2022-07-29T00:41:52;18.00;99.90
42803;DHT22;28447;48.682;9.022;2022-07-29T00:44:18;18.00;99.90
42803;DHT22;28447;48.682;9.022;2022-07-29T00:46:44;18.00;99.90
42803;DHT22;28447;48.682;9.022;2022-07-29T00:49:09;18.00;99.90
42803;DHT22;28447;48.682;9.022;2022-07-29T00:51:38;17.40;99.90
42803;DHT22;28447;48.682;9.022;2022-07-29T00:54:05;17.80;99.90
42803;DHT22;28447;48.682;9.022;2022-07-29T00:56:31;18.00;99.90
42803;DHT22;28447;48.682;9.022;2022-07-29T00:58:59;17.90;99.90
42803;DHT22;28447;48.682;9.022;2022-07-29T01:01:25;17.90;99.90
42803;DHT22;28447;48.682;9.022;2022-07-29T01:03:51;17.90;99.90
42803;DHT22;28447;48.682;9.022;2022-07-29T01:06:18;17.80;99.90
42803;DHT22;28447;48.682;9.022;2022-07-29T01:08:45;17.90;99.90
42803;DHT22;28447;48.682;9.022;2022-07-29T01:11:13;17.70;99.90
42803;DHT22;28447;48.682;9.022;2022-07-29T01:13:39;17.80;99.90
42803;DHT22;28447;48.682;9.022;2022-07-29T01:16:18;17.90;99.90
42803;DHT22;28447;48.682;9.022;2022-07-29T01:18:47;17.80;99.90
42803;DHT22;28447;48.682;9.022;2022-07-29T01:21:44;17.80;99.90
42803;DHT22;28447;48.682;9.022;2022-07-29T01:27:11;17.70;99.90
42803;DHT22;28447;48.682;9.022;2022-07-29T01:29:45;17.60;99.90
42803;DHT22;28447;48.682;9.022;2022-07-29T01:32:39;17.60;99.90
42803;DHT22;28447;48.682;9.022;2022-07-29T01:35:16;17.60;99.90
42803;DHT22;28447;48.682;9.022;2022-07-29T01:40:20;17.60;99.90
42803;DHT22;28447;48.682;9.022;2022-07-29T01:42:54;17.60;99.90
42803;DHT22;28447;48.682;9.022;2022-07-29T01:45:23;17.40;99.90
42803;DHT22;28447;48.682;9.022;2022-07-29T01:48:05;17.50;99.90
42803;DHT22;28447;48.682;9.022;2022-07-29T01:50:40;17.50;99.90
42803;DHT22;28447;48.682;9.022;2022-07-29T01:53:09;17.40;99.90
42803;DHT22;28447;48.682;9.022;2022-07-29T01:55:39;17.40;99.90
42803;DHT22;28447;48.682;9.022;2022-07-29T01:58:07;17.40;99.90
42803;DHT22;28447;48.682;9.022;2022-07-29T02:00:34;17.40;99.90
42803;DHT22;28447;48.682;9.022;2022-07-29T02:03:05;17.30;99.90
42803;DHT22;28447;48.682;9.022;2022-07-29T02:05:34;17.30;99.90
42803;DHT22;28447;48.682;9.022;2022-07-29T02:08:01;17.30;99.90
42803;DHT22;28447;48.682;9.022;2022-07-29T02:10:29;17.30;99.90
42803;DHT22;28447;48.682;9.022;2022-07-29T02:12:57;17.50;99.90
42803;DHT22;28447;48.682;9.022;2022-07-29T02:15:25;17.50;99.90
42803;DHT22;28447;48.682;9.022;2022-07-29T02:17:56;17.60;99.90
42803;DHT22;28447;48.682;9.022;2022-07-29T02:20:25;17.70;99.90
42803;DHT22;28447;48.682;9.022;2022-07-29T02:22:52;17.80;99.90
42803;DHT22;28447;48.682;9.022;2022-07-29T02:25:21;17.80;99.90
42803;DHT22;28447;48.682;9.022;2022-07-29T02:27:49;17.80;99.90
42803;DHT22;28447;48.682;9.022;2022-07-29T02:30:17;17.50;99.90
42803;DHT22;28447;48.682;9.022;2022-07-29T02:32:44;17.40;99.90
42803;DHT22;28447;48.682;9.022;2022-07-29T02:35:13;17.60;99.90
42803;DHT22;28447;48.682;9.022;2022-07-29T02:37:39;17.60;99.90
42803;DHT22;28447;48.682;9.022;2022-07-29T02:40:09;17.60;99.90
42803;DHT22;28447;48.682;9.022;2022-07-29T02:42:37;17.60;99.90
42803;DHT22;28447;48.682;9.022;2022-07-29T02:45:05;17.50;99.90
42803;DHT22;28447;48.682;9.022;2022-07-29T02:47:36;17.40;99.90
42803;DHT22;28447;48.682;9.022;2022-07-29T02:52:54;17.40;99.90
42803;DHT22;28447;48.682;9.022;2022-07-29T02:55:30;17.50;99.90
42803;DHT22;28447;48.682;9.022;2022-07-29T02:58:30;17.60;99.90
42803;DHT22;28447;48.682;9.022;2022-07-29T03:00:59;17.40;99.90
42803;DHT22;28447;48.682;9.022;2022-07-29T03:03:35;17.20;99.90
42803;DHT22;28447;48.682;9.022;2022-07-29T03:06:02;17.00;99.90
42803;DHT22;28447;48.682;9.022;2022-07-29T03:08:29;17.00;99.90
42803;DHT22;28447;48.682;9.022;2022-07-29T03:10:56;17.00;99.90
42803;DHT22;28447;48.682;9.022;2022-07-29T03:13:22;17.00;99.90
42803;DHT22;28447;48.682;9.022;2022-07-29T03:15:49;17.00;99.90
42803;DHT22;28447;48.682;9.022;2022-07-29T03:18:15;16.90;99.90
42803;DHT22;28447;48.682;9.022;2022-07-29T03:20:42;17.00;99.90
42803;DHT22;28447;48.682;9.022;2022-07-29T03:23:08;17.00;99.90
42803;DHT22;28447;48.682;9.022;2022-07-29T03:25:34;16.90;99.90
42803;DHT22;28447;48.682;9.022;2022-07-29T03:28:00;16.90;99.90
42803;DHT22;28447;48.682;9.022;2022-07-29T03:30:26;16.80;99.90
42803;DHT22;28447;48.682;9.022;2022-07-29T03:32:52;16.80;99.90
42803;DHT22;28447;48.682;9.022;2022-07-29T03:35:19;16.80;99.90
42803;DHT22;28447;48.682;9.022;2022-07-29T03:37:45;16.80;99.90
42803;DHT22;28447;48.682;9.022;2022-07-29T03:40:14;16.80;99.90
42803;DHT22;28447;48.682;9.022;2022-07-29T03:42:43;16.80;99.90
42803;DHT22;28447;48.682;9.022;2022-07-29T03:45:18;16.90;99.90
42803;DHT22;28447;48.682;9.022;2022-07-29T03:47:53;16.90;99.90
42803;DHT22;28447;48.682;9.022;2022-07-29T03:50:20;16.90;99.90
42803;DHT22;28447;48.682;9.022;2022-07-29T03:52:47;16.80;99.90
42803;DHT22;28447;48.682;9.022;2022-07-29T03:55:14;17.00;99.90
42803;DHT22;28447;48.682;9.022;2022-07-29T03:57:40;16.90;99.90
42803;DHT22;28447;48.682;9.022;2022-07-29T04:00:07;16.90;99.90
42803;DHT22;28447;48.682;9.022;2022-07-29T04:02:34;16.80;99.90
42803;DHT22;28447;48.682;9.022;2022-07-29T04:04:59;16.90;99.90
42803;DHT22;28447;48.682;9.022;2022-07-29T04:07:25;16.00;99.90
42803;DHT22;28447;48.682;9.022;2022-07-29T04:09:51;16.80;99.90
42803;DHT22;28447;48.682;9.022;2022-07-29T04:12:16;16.80;99.90
42803;DHT22;28447;48.682;9.022;2022-07-29T04:14:42;16.70;99.90
42803;DHT22;28447;48.682;9.022;2022-07-29T04:17:08;16.70;99.90
42803;DHT22;28447;48.682;9.022;2022-07-29T04:19:33;18.00;99.90
42803;DHT22;28447;48.682;9.022;2022-07-29T04:22:00;16.60;99.90
42803;DHT22;28447;48.682;9.022;2022-07-29T04:24:26;16.60;99.90
42803;DHT22;28447;48.682;9.022;2022-07-29T04:26:52;16.60;99.90
42803;DHT22;28447;48.682;9.022;2022-07-29T04:29:18;16.50;99.90
42803;DHT22;28447;48.682;9.022;2022-07-29T04:31:45;16.60;99.90
42803;DHT22;28447;48.682;9.022;2022-07-29T04:34:11;16.60;99.90
42803;DHT22;28447;48.682;9.022;2022-07-29T04:36:37;16.60;99.90
42803;DHT22;28447;48.682;9.022;2022-07-29T04:39:03;16.60;99.90
42803;DHT22;28447;48.682;9.022;2022-07-29T04:41:29;16.60;99.90
42803;DHT22;28447;48.682;9.022;2022-07-29T04:43:54;16.70;99.90
42803;DHT22;28447;48.682;9.022;2022-07-29T04:46:20;16.80;99.90
42803;DHT22;28447;48.682;9.022;2022-07-29T04:48:46;16.90;99.90
42803;DHT22;28447;48.682;9.022;2022-07-29T04:51:14;16.90;99.90
42803;DHT22;28447;48.682;9.022;2022-07-29T04:53:40;17.00;99.90
42803;DHT22;28447;48.682;9.022;2022-07-29T04:56:05;17.10;99.90
42803;DHT22;28447;48.682;9.022;2022-07-29T04:58:31;17.20;99.90
42803;DHT22;28447;48.682;9.022;2022-07-29T05:00:57;17.30;99.90
42803;DHT22;28447;48.682;9.022;2022-07-29T05:03:22;17.40;99.90
42803;DHT22;28447;48.682;9.022;2022-07-29T05:05:48;17.50;99.90
42803;DHT22;28447;48.682;9.022;2022-07-29T05:08:13;17.50;99.90
42803;DHT22;28447;48.682;9.022;2022-07-29T05:10:39;17.60;99.90
42803;DHT22;28447;48.682;9.022;2022-07-29T05:13:05;17.70;99.90
42803;DHT22;28447;48.682;9.022;2022-07-29T05:15:32;17.90;99.90
42803;DHT22;28447;48.682;9.022;2022-07-29T05:17:58;18.10;99.90
42803;DHT22;28447;48.682;9.022;2022-07-29T05:20:24;18.30;99.90
42803;DHT22;28447;48.682;9.022;2022-07-29T05:22:52;18.40;99.90
42803;DHT22;28447;48.682;9.022;2022-07-29T05:25:17;18.40;99.90
42803;DHT22;28447;48.682;9.022;2022-07-29T05:27:43;18.50;99.90
42803;DHT22;28447;48.682;9.022;2022-07-29T05:30:09;18.60;99.90
42803;DHT22;28447;48.682;9.022;2022-07-29T05:32:35;18.70;99.90
42803;DHT22;28447;48.682;9.022;2022-07-29T05:35:00;18.60;99.90
42803;DHT22;28447;48.682;9.022;2022-07-29T05:37:26;18.80;99.90
42803;DHT22;28447;48.682;9.022;2022-07-29T05:39:52;18.80;99.90
42803;DHT22;28447;48.682;9.022;2022-07-29T05:42:17;18.80;99.90
42803;DHT22;28447;48.682;9.022;2022-07-29T05:44:43;18.70;99.90
42803;DHT22;28447;48.682;9.022;2022-07-29T05:47:09;18.50;99.90
42803;DHT22;28447;48.682;9.022;2022-07-29T05:49:34;18.50;99.90
42803;DHT22;28447;48.682;9.022;2022-07-29T05:52:00;18.70;99.90
42803;DHT22;28447;48.682;9.022;2022-07-29T05:54:25;19.10;99.90
42803;DHT22;28447;48.682;9.022;2022-07-29T05:56:52;19.30;99.90
42803;DHT22;28447;48.682;9.022;2022-07-29T05:59:18;19.50;99.90
42803;DHT22;28447;48.682;9.022;2022-07-29T06:01:43;19.70;99.90
42803;DHT22;28447;48.682;9.022;2022-07-29T06:04:09;19.70;99.90
42803;DHT22;28447;48.682;9.022;2022-07-29T06:06:35;19.40;99.90
42803;DHT22;28447;48.682;9.022;2022-07-29T06:09:01;19.10;99.90
42803;DHT22;28447;48.682;9.022;2022-07-29T06:11:27;19.50;99.90
42803;DHT22;28447;48.682;9.022;2022-07-29T06:13:53;19.50;99.90
42803;DHT22;28447;48.682;9.022;2022-07-29T06:16:19;19.50;99.90
42803;DHT22;28447;48.682;9.022;2022-07-29T06:18:45;19.60;99.90
42803;DHT22;28447;48.682;9.022;2022-07-29T06:21:10;20.00;99.90
42803;DHT22;28447;48.682;9.022;2022-07-29T06:23:37;20.20;99.90
42803;DHT22;28447;48.682;9.022;2022-07-29T06:26:03;20.70;99.90
42803;DHT22;28447;48.682;9.022;2022-07-29T06:28:29;20.80;99.90
42803;DHT22;28447;48.682;9.022;2022-07-29T06:30:55;20.70;99.90
42803;DHT22;28447;48.682;9.022;2022-07-29T06:33:20;20.80;99.90
42803;DHT22;28447;48.682;9.022;2022-07-29T06:35:46;21.30;99.90
42803;DHT22;28447;48.682;9.022;2022-07-29T06:38:15;20.80;99.90
42803;DHT22;28447;48.682;9.022;2022-07-29T06:40:44;21.00;99.90
42803;DHT22;28447;48.682;9.022;2022-07-29T06:43:30;21.40;99.90
42803;DHT22;28447;48.682;9.022;2022-07-29T06:46:05;21.20;99.90
42803;DHT22;28447;48.682;9.022;2022-07-29T06:48:32;21.20;99.90
42803;DHT22;28447;48.682;9.022;2022-07-29T06:50:59;21.30;99.90
42803;DHT22;28447;48.682;9.022;2022-07-29T06:53:25;21.60;99.90
42803;DHT22;28447;48.682;9.022;2022-07-29T06:55:51;21.90;99.90
42803;DHT22;28447;48.682;9.022;2022-07-29T06:58:16;21.40;99.90
42803;DHT22;28447;48.682;9.022;2022-07-29T07:00:46;21.40;99.90
42803;DHT22;28447;48.682;9.022;2022-07-29T07:03:11;21.70;99.90
42803;DHT22;28447;48.682;9.022;2022-07-29T07:05:38;21.40;99.90
42803;DHT22;28447;48.682;9.022;2022-07-29T07:08:04;21.50;99.90
42803;DHT22;28447;48.682;9.022;2022-07-29T07:10:30;21.80;99.90
42803;DHT22;28447;48.682;9.022;2022-07-29T07:12:55;21.90;99.90
42803;DHT22;28447;48.682;9.022;2022-07-29T07:15:21;22.20;99.90
42803;DHT22;28447;48.682;9.022;2022-07-29T07:17:50;22.20;99.90
42803;DHT22;28447;48.682;9.022;2022-07-29T07:20:16;22.10;99.90
42803;DHT22;28447;48.682;9.022;2022-07-29T07:22:42;22.30;99.90
42803;DHT22;28447;48.682;9.022;2022-07-29T07:25:11;23.30;99.90
42803;DHT22;28447;48.682;9.022;2022-07-29T07:27:37;23.10;99.90
42803;DHT22;28447;48.682;9.022;2022-07-29T07:30:05;23.20;99.90
42803;DHT22;28447;48.682;9.022;2022-07-29T07:32:32;23.70;99.90
42803;DHT22;28447;48.682;9.022;2022-07-29T07:34:57;24.30;99.90
42803;DHT22;28447;48.682;9.022;2022-07-29T07:37:24;24.40;99.90
42803;DHT22;28447;48.682;9.022;2022-07-29T07:39:51;24.70;99.90
42803;DHT22;28447;48.682;9.022;2022-07-29T07:42:17;25.10;99.90
42803;DHT22;28447;48.682;9.022;2022-07-29T07:44:43;24.70;99.90
42803;DHT22;28447;48.682;9.022;2022-07-29T07:47:08;24.70;99.90
42803;DHT22;28447;48.682;9.022;2022-07-29T07:49:34;25.00;99.90
42803;DHT22;28447;48.682;9.022;2022-07-29T07:52:00;25.60;99.90
42803;DHT22;28447;48.682;9.022;2022-07-29T07:56:52;25.60;99.90
42803;DHT22;28447;48.682;9.022;2022-07-29T07:59:17;24.40;99.90
42803;DHT22;28447;48.682;9.022;2022-07-29T08:01:43;23.40;99.90
42803;DHT22;28447;48.682;9.022;2022-07-29T08:04:09;23.50;99.90
42803;DHT22;28447;48.682;9.022;2022-07-29T08:06:35;23.30;99.90
42803;DHT22;28447;48.682;9.022;2022-07-29T08:09:03;23.90;99.90
42803;DHT22;28447;48.682;9.022;2022-07-29T08:11:29;24.70;99.90
42803;DHT22;28447;48.682;9.022;2022-07-29T08:13:55;25.10;99.90
42803;DHT22;28447;48.682;9.022;2022-07-29T08:16:21;25.20;99.90
42803;DHT22;28447;48.682;9.022;2022-07-29T08:18:47;26.10;99.90
42803;DHT22;28447;48.682;9.022;2022-07-29T08:21:14;26.40;99.90
42803;DHT22;28447;48.682;9.022;2022-07-29T08:23:40;25.30;99.90
42803;DHT22;28447;48.682;9.022;2022-07-29T08:26:12;25.40;99.90
42803;DHT22;28447;48.682;9.022;2022-07-29T08:28:39;25.40;99.90
42803;DHT22;28447;48.682;9.022;2022-07-29T08:31:05;25.90;99.90
42803;DHT22;28447;48.682;9.022;2022-07-29T08:33:32;25.80;99.90
42803;DHT22;28447;48.682;9.022;2022-07-29T08:35:58;24.90;99.90
42803;DHT22;28447;48.682;9.022;2022-07-29T08:38:23;25.10;99.90
42803;DHT22;28447;48.682;9.022;2022-07-29T08:40:52;24.80;99.90
42803;DHT22;28447;48.682;9.022;2022-07-29T08:43:18;24.90;99.90
42803;DHT22;28447;48.682;9.022;2022-07-29T08:45:46;24.70;99.90
42803;DHT22;28447;48.682;9.022;2022-07-29T08:48:20;24.70;99.90
42803;DHT22;28447;48.682;9.022;2022-07-29T08:50:47;24.70;99.90
42803;DHT22;28447;48.682;9.022;2022-07-29T08:53:15;24.60;99.90
42803;DHT22;28447;48.682;9.022;2022-07-29T08:55:49;25.40;99.90
42803;DHT22;28447;48.682;9.022;2022-07-29T08:58:15;26.70;99.90
42803;DHT22;28447;48.682;9.022;2022-07-29T09:00:51;26.90;99.90
42803;DHT22;28447;48.682;9.022;2022-07-29T09:03:19;26.30;99.90
42803;DHT22;28447;48.682;9.022;2022-07-29T09:05:46;25.90;99.90
42803;DHT22;28447;48.682;9.022;2022-07-29T09:08:13;26.10;99.90
42803;DHT22;28447;48.682;9.022;2022-07-29T09:10:39;26.20;99.90
42803;DHT22;28447;48.682;9.022;2022-07-29T09:13:05;27.10;99.90
42803;DHT22;28447;48.682;9.022;2022-07-29T09:15:30;27.60;99.90
42803;DHT22;28447;48.682;9.022;2022-07-29T09:17:56;29.00;99.90
42803;DHT22;28447;48.682;9.022;2022-07-29T09:20:24;27.70;99.90
42803;DHT22;28447;48.682;9.022;2022-07-29T09:22:51;26.70;99.90
42803;DHT22;28447;48.682;9.022;2022-07-29T09:25:38;26.10;99.90
42803;DHT22;28447;48.682;9.022;2022-07-29T09:28:14;26.10;99.90
42803;DHT22;28447;48.682;9.022;2022-07-29T09:30:53;26.60;99.90
42803;DHT22;28447;48.682;9.022;2022-07-29T09:33:21;28.70;99.90
42803;DHT22;28447;48.682;9.022;2022-07-29T09:35:59;29.60;99.90
42803;DHT22;28447;48.682;9.022;2022-07-29T09:38:25;28.80;99.90
42803;DHT22;28447;48.682;9.022;2022-07-29T09:41:01;28.10;99.90
42803;DHT22;28447;48.682;9.022;2022-07-29T09:43:28;27.10;99.90
42803;DHT22;28447;48.682;9.022;2022-07-29T09:45:53;26.20;99.90
42803;DHT22;28447;48.682;9.022;2022-07-29T09:48:24;25.90;99.90
42803;DHT22;28447;48.682;9.022;2022-07-29T09:50:50;26.90;99.90
42803;DHT22;28447;48.682;9.022;2022-07-29T09:55:59;28.60;99.90
42803;DHT22;28447;48.682;9.022;2022-07-29T09:58:26;29.60;99.90
42803;DHT22;28447;48.682;9.022;2022-07-29T10:00:57;29.70;99.90
42803;DHT22;28447;48.682;9.022;2022-07-29T10:03:23;29.60;99.90
42803;DHT22;28447;48.682;9.022;2022-07-29T10:06:09;28.10;99.90
42803;DHT22;28447;48.682;9.022;2022-07-29T10:08:36;29.70;99.90
42803;DHT22;28447;48.682;9.022;2022-07-29T10:11:16;29.20;99.90
42803;DHT22;28447;48.682;9.022;2022-07-29T10:13:44;29.50;99.90
42803;DHT22;28447;48.682;9.022;2022-07-29T10:16:10;30.40;99.90
42803;DHT22;28447;48.682;9.022;2022-07-29T10:18:44;30.40;99.90
42803;DHT22;28447;48.682;9.022;2022-07-29T10:21:10;30.20;99.90
42803;DHT22;28447;48.682;9.022;2022-07-29T10:23:36;28.50;99.90
42803;DHT22;28447;48.682;9.022;2022-07-29T10:26:03;27.50;99.90
42803;DHT22;28447;48.682;9.022;2022-07-29T10:28:32;26.70;99.90
42803;DHT22;28447;48.682;9.022;2022-07-29T10:31:05;27.10;99.90
42803;DHT22;28447;48.682;9.022;2022-07-29T10:33:50;26.90;99.90
42803;DHT22;28447;48.682;9.022;2022-07-29T10:36:32;24.90;99.90
42803;DHT22;28447;48.682;9.022;2022-07-29T10:44:20;23.20;99.90
42803;DHT22;28447;48.682;9.022;2022-07-29T10:46:48;22.60;99.90
42803;DHT22;28447;48.682;9.022;2022-07-29T10:49:24;22.20;99.90
42803;DHT22;28447;48.682;9.022;2022-07-29T10:57:23;20.70;99.90
42803;DHT22;28447;48.682;9.022;2022-07-29T11:07:27;19.70;99.90
42803;DHT22;28447;48.682;9.022;2022-07-29T11:15:05;19.80;99.90
42803;DHT22;28447;48.682;9.022;2022-07-29T11:28:51;20.10;99.90
42803;DHT22;28447;48.682;9.022;2022-07-29T11:31:51;19.90;99.90
42803;DHT22;28447;48.682;9.022;2022-07-29T11:34:28;20.00;99.90
42803;DHT22;28447;48.682;9.022;2022-07-29T11:39:37;20.40;99.90
42803;DHT22;28447;48.682;9.022;2022-07-29T11:44:58;19.60;99.90
42803;DHT22;28447;48.682;9.022;2022-07-29T11:47:26;20.10;99.90
42803;DHT22;28447;48.682;9.022;2022-07-29T11:49:53;20.30;99.90
42803;DHT22;28447;48.682;9.022;2022-07-29T11:52:20;20.30;99.90
42803;DHT22;28447;48.682;9.022;2022-07-29T11:54:48;20.50;99.90
42803;DHT22;28447;48.682;9.022;2022-07-29T11:57:18;20.60;99.90
42803;DHT22;28447;48.682;9.022;2022-07-29T11:59:45;20.70;99.90
42803;DHT22;28447;48.682;9.022;2022-07-29T12:02:11;20.80;99.90
42803;DHT22;28447;48.682;9.022;2022-07-29T12:04:55;20.80;99.90
42803;DHT22;28447;48.682;9.022;2022-07-29T12:07:31;20.70;99.90
42803;DHT22;28447;48.682;9.022;2022-07-29T12:09:57;21.00;99.90
42803;DHT22;28447;48.682;9.022;2022-07-29T12:12:23;21.30;99.90
42803;DHT22;28447;48.682;9.022;2022-07-29T12:14:49;22.00;99.90
42803;DHT22;28447;48.682;9.022;2022-07-29T12:17:34;22.40;99.90
42803;DHT22;28447;48.682;9.022;2022-07-29T12:20:02;22.90;99.90
42803;DHT22;28447;48.682;9.022;2022-07-29T12:22:37;22.20;99.90
42803;DHT22;28447;48.682;9.022;2022-07-29T12:25:13;22.30;99.90
42803;DHT22;28447;48.682;9.022;2022-07-29T12:27:41;22.40;99.90
42803;DHT22;28447;48.682;9.022;2022-07-29T12:30:11;22.10;99.90
42803;DHT22;28447;48.682;9.022;2022-07-29T12:35:12;21.70;99.90
42803;DHT22;28447;48.682;9.022;2022-07-29T12:37:40;21.70;99.90
42803;DHT22;28447;48.682;9.022;2022-07-29T12:40:07;23.30;99.90
42803;DHT22;28447;48.682;9.022;2022-07-29T12:42:34;20.60;99.90
42803;DHT22;28447;48.682;9.022;2022-07-29T12:47:27;20.90;99.90
42803;DHT22;28447;48.682;9.022;2022-07-29T12:50:13;21.40;99.90
42803;DHT22;28447;48.682;9.022;2022-07-29T12:52:44;20.80;99.90
42803;DHT22;28447;48.682;9.022;2022-07-29T12:58:03;20.00;99.90
42803;DHT22;28447;48.682;9.022;2022-07-29T13:00:28;19.20;99.90
42803;DHT22;28447;48.682;9.022;2022-07-29T13:02:57;19.10;99.90
42803;DHT22;28447;48.682;9.022;2022-07-29T13:05:22;19.10;99.90
42803;DHT22;28447;48.682;9.022;2022-07-29T13:07:49;19.30;99.90
42803;DHT22;28447;48.682;9.022;2022-07-29T13:10:20;19.60;99.90
42803;DHT22;28447;48.682;9.022;2022-07-29T13:13:14;18.60;99.90
42803;DHT22;28447;48.682;9.022;2022-07-29T13:18:28;18.80;99.90
42803;DHT22;28447;48.682;9.022;2022-07-29T13:20:54;18.90;99.90
42803;DHT22;28447;48.682;9.022;2022-07-29T13:23:20;19.50;99.90
42803;DHT22;28447;48.682;9.022;2022-07-29T13:25:46;19.60;99.90
42803;DHT22;28447;48.682;9.022;2022-07-29T13:28:12;19.50;99.90
42803;DHT22;28447;48.682;9.022;2022-07-29T13:30:40;19.50;99.90
42803;DHT22;28447;48.682;9.022;2022-07-29T13:38:03;20.50;99.90
42803;DHT22;28447;48.682;9.022;2022-07-29T13:40:30;20.70;99.90
42803;DHT22;28447;48.682;9.022;2022-07-29T13:45:23;20.40;99.90
42803;DHT22;28447;48.682;9.022;2022-07-29T13:47:48;20.70;99.90
42803;DHT22;28447;48.682;9.022;2022-07-29T13:52:40;22.00;99.90
42803;DHT22;28447;48.682;9.022;2022-07-29T13:55:06;21.90;99.90
42803;DHT22;28447;48.682;9.022;2022-07-29T13:57:33;22.10;99.90
42803;DHT22;28447;48.682;9.022;2022-07-29T13:59:59;22.20;99.90
42803;DHT22;28447;48.682;9.022;2022-07-29T14:02:24;22.00;99.90
42803;DHT22;28447;48.682;9.022;2022-07-29T14:04:50;22.50;99.90
42803;DHT22;28447;48.682;9.022;2022-07-29T14:07:16;21.30;99.90
42803;DHT22;28447;48.682;9.022;2022-07-29T14:12:08;21.80;99.90
42803;DHT22;28447;48.682;9.022;2022-07-29T14:14:34;22.30;99.90
42803;DHT22;28447;48.682;9.022;2022-07-29T14:17:01;21.70;99.90
42803;DHT22;28447;48.682;9.022;2022-07-29T14:26:46;22.40;99.90
42803;DHT22;28447;48.682;9.022;2022-07-29T14:34:04;21.60;99.90
42803;DHT22;28447;48.682;9.022;2022-07-29T14:36:29;21.20;99.90
42803;DHT22;28447;48.682;9.022;2022-07-29T14:41:21;23.10;99.90
42803;DHT22;28447;48.682;9.022;2022-07-29T14:46:13;23.30;99.90
42803;DHT22;28447;48.682;9.022;2022-07-29T14:48:38;23.80;99.90
42803;DHT22;28447;48.682;9.022;2022-07-29T14:51:04;23.20;99.90
42803;DHT22;28447;48.682;9.022;2022-07-29T14:53:29;24.30;99.90
42803;DHT22;28447;48.682;9.022;2022-07-29T14:55:55;23.90;99.90
42803;DHT22;28447;48.682;9.022;2022-07-29T15:00:48;24.30;99.90
42803;DHT22;28447;48.682;9.022;2022-07-29T15:03:13;22.50;99.90
42803;DHT22;28447;48.682;9.022;2022-07-29T15:05:39;23.50;99.90
42803;DHT22;28447;48.682;9.022;2022-07-29T15:08:05;23.90;99.90
42803;DHT22;28447;48.682;9.022;2022-07-29T15:12:57;23.90;99.90
42803;DHT22;28447;48.682;9.022;2022-07-29T15:15:22;23.80;99.90
42803;DHT22;28447;48.682;9.022;2022-07-29T15:20:14;23.20;99.90
42803;DHT22;28447;48.682;9.022;2022-07-29T15:22:40;23.30;99.90
42803;DHT22;28447;48.682;9.022;2022-07-29T15:25:09;23.70;99.90
42803;DHT22;28447;48.682;9.022;2022-07-29T15:32:27;23.40;99.90
42803;DHT22;28447;48.682;9.022;2022-07-29T15:34:53;23.80;99.90
42803;DHT22;28447;48.682;9.022;2022-07-29T15:37:19;23.70;99.90
42803;DHT22;28447;48.682;9.022;2022-07-29T15:39:55;23.70;99.90
42803;DHT22;28447;48.682;9.022;2022-07-29T15:42:21;23.30;99.90
42803;DHT22;28447;48.682;9.022;2022-07-29T15:49:39;24.30;99.90
42803;DHT22;28447;48.682;9.022;2022-07-29T15:52:09;24.40;99.90
42803;DHT22;28447;48.682;9.022;2022-07-29T15:54:36;23.30;99.90
42803;DHT22;28447;48.682;9.022;2022-07-29T15:57:06;23.90;99.90
42803;DHT22;28447;48.682;9.022;2022-07-29T15:59:33;24.30;99.90
42803;DHT22;28447;48.682;9.022;2022-07-29T16:02:01;24.00;99.90
42803;DHT22;28447;48.682;9.022;2022-07-29T16:04:28;24.20;99.90
42803;DHT22;28447;48.682;9.022;2022-07-29T16:06:54;23.10;99.90
42803;DHT22;28447;48.682;9.022;2022-07-29T16:11:50;23.40;99.90
42803;DHT22;28447;48.682;9.022;2022-07-29T16:16:53;24.20;99.90
42803;DHT22;28447;48.682;9.022;2022-07-29T16:21:47;24.20;99.90
42803;DHT22;28447;48.682;9.022;2022-07-29T16:27:04;23.90;99.90
42803;DHT22;28447;48.682;9.022;2022-07-29T16:32:00;23.50;99.90
42803;DHT22;28447;48.682;9.022;2022-07-29T16:34:26;23.60;99.90
42803;DHT22;28447;48.682;9.022;2022-07-29T16:36:52;23.10;99.90
42803;DHT22;28447;48.682;9.022;2022-07-29T16:41:44;23.70;99.90
42803;DHT22;28447;48.682;9.022;2022-07-29T16:49:03;23.50;99.90
42803;DHT22;28447;48.682;9.022;2022-07-29T16:51:32;23.10;99.90
42803;DHT22;28447;48.682;9.022;2022-07-29T16:53:57;23.90;99.90
42803;DHT22;28447;48.682;9.022;2022-07-29T17:03:42;23.30;99.90
42803;DHT22;28447;48.682;9.022;2022-07-29T17:06:27;22.60;99.90
42803;DHT22;28447;48.682;9.022;2022-07-29T17:11:19;23.20;99.90
42803;DHT22;28447;48.682;9.022;2022-07-29T17:13:44;23.20;99.90
42803;DHT22;28447;48.682;9.022;2022-07-29T17:16:10;24.00;99.90
42803;DHT22;28447;48.682;9.022;2022-07-29T17:18:36;23.80;99.90
42803;DHT22;28447;48.682;9.022;2022-07-29T17:21:02;23.40;99.90
42803;DHT22;28447;48.682;9.022;2022-07-29T17:28:20;23.30;99.90
42803;DHT22;28447;48.682;9.022;2022-07-29T17:35:38;23.00;99.90
42803;DHT22;28447;48.682;9.022;2022-07-29T17:38:22;23.20;99.90
42803;DHT22;28447;48.682;9.022;2022-07-29T17:40:48;23.40;99.90
42803;DHT22;28447;48.682;9.022;2022-07-29T17:48:06;23.30;99.90
42803;DHT22;28447;48.682;9.022;2022-07-29T17:50:31;23.20;99.90
42803;DHT22;28447;48.682;9.022;2022-07-29T17:52:57;23.20;99.90
42803;DHT22;28447;48.682;9.022;2022-07-29T17:55:23;23.30;99.90
42803;DHT22;28447;48.682;9.022;2022-07-29T17:57:48;23.30;99.90
42803;DHT22;28447;48.682;9.022;2022-07-29T18:00:14;23.40;99.90
42803;DHT22;28447;48.682;9.022;2022-07-29T18:02:40;23.50;99.90
42803;DHT22;28447;48.682;9.022;2022-07-29T18:05:05;23.50;99.90
42803;DHT22;28447;48.682;9.022;2022-07-29T18:07:31;23.80;99.90
42803;DHT22;28447;48.682;9.022;2022-07-29T18:09:57;23.50;99.90